sensor_id;sensor_type;location;lat;lon;timestamp;P1;durP1;ratioP1;P2;durP2;ratioP2
35128;SDS011;21301;43.626;10.580;2022-08-19T00:01:50;13.77;;;7.85;;
35128;SDS011;21301;43.626;10.580;2022-08-19T00:04:19;17.02;;;6.85;;
35128;SDS011;21301;43.626;10.580;2022-08-19T00:06:46;16.27;;;6.03;;
35128;SDS011;21301;43.626;10.580;2022-08-19T00:09:13;13.65;;;4.50;;
35128;SDS011;21301;43.626;10.580;2022-08-19T00:11:41;11.90;;;4.45;;
35128;SDS011;21301;43.626;10.580;2022-08-19T00:14:09;10.35;;;4.78;;
35128;SDS011;21301;43.626;10.580;2022-08-19T00:16:37;9.15;;;4.15;;
35128;SDS011;21301;43.626;10.580;2022-08-19T00:19:04;8.93;;;4.05;;
35128;SDS011;21301;43.626;10.580;2022-08-19T00:21:30;10.02;;;4.13;;
35128;SDS011;21301;43.626;10.580;2022-08-19T00:23:56;10.80;;;4.20;;
35128;SDS011;21301;43.626;10.580;2022-08-19T00:26:23;13.38;;;4.47;;
35128;SDS011;21301;43.626;10.580;2022-08-19T00:28:50;15.25;;;4.90;;
35128;SDS011;21301;43.626;10.580;2022-08-19T00:31:16;12.77;;;5.10;;
35128;SDS011;21301;43.626;10.580;2022-08-19T00:33:42;11.77;;;5.85;;
35128;SDS011;21301;43.626;10.580;2022-08-19T00:36:08;23.58;;;10.45;;
35128;SDS011;21301;43.626;10.580;2022-08-19T00:38:36;14.60;;;6.30;;
35128;SDS011;21301;43.626;10.580;2022-08-19T00:41:06;12.70;;;5.00;;
35128;SDS011;21301;43.626;10.580;2022-08-19T00:43:32;17.85;;;7.32;;
35128;SDS011;21301;43.626;10.580;2022-08-19T00:45:58;18.25;;;8.35;;
35128;SDS011;21301;43.626;10.580;2022-08-19T00:48:24;19.50;;;7.13;;
35128;SDS011;21301;43.626;10.580;2022-08-19T00:50:51;17.65;;;7.72;;
35128;SDS011;21301;43.626;10.580;2022-08-19T00:53:19;16.13;;;5.85;;
35128;SDS011;21301;43.626;10.580;2022-08-19T00:55:49;12.75;;;6.35;;
35128;SDS011;21301;43.626;10.580;2022-08-19T00:58:18;15.07;;;8.35;;
35128;SDS011;21301;43.626;10.580;2022-08-19T01:00:46;18.13;;;7.65;;
35128;SDS011;21301;43.626;10.580;2022-08-19T01:03:14;15.95;;;5.88;;
35128;SDS011;21301;43.626;10.580;2022-08-19T01:05:43;16.23;;;7.00;;
35128;SDS011;21301;43.626;10.580;2022-08-19T01:08:10;16.30;;;6.90;;
35128;SDS011;21301;43.626;10.580;2022-08-19T01:10:42;13.27;;;7.28;;
35128;SDS011;21301;43.626;10.580;2022-08-19T01:13:13;12.88;;;5.72;;
35128;SDS011;21301;43.626;10.580;2022-08-19T01:15:45;19.58;;;5.25;;
35128;SDS011;21301;43.626;10.580;2022-08-19T01:18:15;14.60;;;5.65;;
35128;SDS011;21301;43.626;10.580;2022-08-19T01:20:43;20.40;;;6.28;;
35128;SDS011;21301;43.626;10.580;2022-08-19T01:23:09;12.82;;;4.60;;
35128;SDS011;21301;43.626;10.580;2022-08-19T01:25:47;10.82;;;4.75;;
35128;SDS011;21301;43.626;10.580;2022-08-19T01:28:19;13.48;;;5.43;;
35128;SDS011;21301;43.626;10.580;2022-08-19T01:30:48;9.98;;;4.53;;
35128;SDS011;21301;43.626;10.580;2022-08-19T01:33:14;12.15;;;4.93;;
35128;SDS011;21301;43.626;10.580;2022-08-19T01:35:40;12.77;;;4.85;;
35128;SDS011;21301;43.626;10.580;2022-08-19T01:38:08;15.25;;;4.55;;
35128;SDS011;21301;43.626;10.580;2022-08-19T01:40:37;8.48;;;3.00;;
35128;SDS011;21301;43.626;10.580;2022-08-19T01:43:05;9.98;;;3.60;;
35128;SDS011;21301;43.626;10.580;2022-08-19T01:45:32;11.45;;;4.85;;
35128;SDS011;21301;43.626;10.580;2022-08-19T01:47:59;10.57;;;4.13;;
35128;SDS011;21301;43.626;10.580;2022-08-19T01:50:25;9.90;;;4.28;;
35128;SDS011;21301;43.626;10.580;2022-08-19T01:52:52;13.70;;;4.55;;
35128;SDS011;21301;43.626;10.580;2022-08-19T01:55:19;9.45;;;4.05;;
35128;SDS011;21301;43.626;10.580;2022-08-19T01:57:50;12.85;;;5.47;;
35128;SDS011;21301;43.626;10.580;2022-08-19T02:00:20;10.13;;;3.50;;
35128;SDS011;21301;43.626;10.580;2022-08-19T02:02:49;13.65;;;5.40;;
35128;SDS011;21301;43.626;10.580;2022-08-19T02:05:15;8.90;;;4.15;;
35128;SDS011;21301;43.626;10.580;2022-08-19T02:07:43;12.25;;;4.63;;
35128;SDS011;21301;43.626;10.580;2022-08-19T02:10:11;12.82;;;5.68;;
35128;SDS011;21301;43.626;10.580;2022-08-19T02:12:39;19.73;;;5.57;;
35128;SDS011;21301;43.626;10.580;2022-08-19T02:15:05;13.65;;;5.55;;
35128;SDS011;21301;43.626;10.580;2022-08-19T02:17:31;14.55;;;5.68;;
35128;SDS011;21301;43.626;10.580;2022-08-19T02:19:57;14.10;;;5.00;;
35128;SDS011;21301;43.626;10.580;2022-08-19T02:22:24;14.90;;;5.28;;
35128;SDS011;21301;43.626;10.580;2022-08-19T02:24:53;13.55;;;5.50;;
35128;SDS011;21301;43.626;10.580;2022-08-19T02:27:20;21.70;;;6.05;;
35128;SDS011;21301;43.626;10.580;2022-08-19T02:29:47;12.70;;;5.32;;
35128;SDS011;21301;43.626;10.580;2022-08-19T02:32:13;19.15;;;6.70;;
35128;SDS011;21301;43.626;10.580;2022-08-19T02:34:40;15.13;;;6.30;;
35128;SDS011;21301;43.626;10.580;2022-08-19T02:37:06;16.58;;;6.00;;
35128;SDS011;21301;43.626;10.580;2022-08-19T02:39:52;17.25;;;4.85;;
35128;SDS011;21301;43.626;10.580;2022-08-19T02:42:18;8.90;;;3.92;;
35128;SDS011;21301;43.626;10.580;2022-08-19T02:44:43;10.43;;;4.47;;
35128;SDS011;21301;43.626;10.580;2022-08-19T02:47:09;10.63;;;4.32;;
35128;SDS011;21301;43.626;10.580;2022-08-19T02:49:35;11.82;;;5.22;;
35128;SDS011;21301;43.626;10.580;2022-08-19T02:52:01;11.27;;;4.47;;
35128;SDS011;21301;43.626;10.580;2022-08-19T02:54:28;19.45;;;4.68;;
35128;SDS011;21301;43.626;10.580;2022-08-19T02:56:54;7.25;;;3.80;;
35128;SDS011;21301;43.626;10.580;2022-08-19T02:59:20;10.48;;;3.97;;
35128;SDS011;21301;43.626;10.580;2022-08-19T03:01:46;13.88;;;4.38;;
35128;SDS011;21301;43.626;10.580;2022-08-19T03:04:12;11.52;;;4.75;;
35128;SDS011;21301;43.626;10.580;2022-08-19T03:06:40;16.88;;;4.50;;
35128;SDS011;21301;43.626;10.580;2022-08-19T03:09:08;8.45;;;3.92;;
35128;SDS011;21301;43.626;10.580;2022-08-19T03:11:34;7.13;;;3.90;;
35128;SDS011;21301;43.626;10.580;2022-08-19T03:14:00;10.05;;;3.55;;
35128;SDS011;21301;43.626;10.580;2022-08-19T03:16:28;13.43;;;4.30;;
35128;SDS011;21301;43.626;10.580;2022-08-19T03:18:56;8.68;;;4.15;;
35128;SDS011;21301;43.626;10.580;2022-08-19T03:21:28;13.13;;;4.28;;
35128;SDS011;21301;43.626;10.580;2022-08-19T03:23:57;11.57;;;3.88;;
35128;SDS011;21301;43.626;10.580;2022-08-19T03:26:24;16.48;;;4.57;;
35128;SDS011;21301;43.626;10.580;2022-08-19T03:28:50;14.30;;;3.92;;
35128;SDS011;21301;43.626;10.580;2022-08-19T03:31:17;10.85;;;3.42;;
35128;SDS011;21301;43.626;10.580;2022-08-19T03:33:47;8.80;;;4.03;;
35128;SDS011;21301;43.626;10.580;2022-08-19T03:36:18;7.97;;;4.00;;
35128;SDS011;21301;43.626;10.580;2022-08-19T03:41:22;16.90;;;5.28;;
35128;SDS011;21301;43.626;10.580;2022-08-19T03:43:50;12.00;;;5.18;;
35128;SDS011;21301;43.626;10.580;2022-08-19T03:46:18;14.43;;;4.75;;
35128;SDS011;21301;43.626;10.580;2022-08-19T03:48:47;10.20;;;4.50;;
35128;SDS011;21301;43.626;10.580;2022-08-19T03:51:21;15.77;;;5.28;;
35128;SDS011;21301;43.626;10.580;2022-08-19T03:53:50;16.00;;;6.25;;
35128;SDS011;21301;43.626;10.580;2022-08-19T03:56:16;11.75;;;4.78;;
35128;SDS011;21301;43.626;10.580;2022-08-19T03:58:42;11.05;;;5.35;;
35128;SDS011;21301;43.626;10.580;2022-08-19T04:01:09;11.13;;;5.28;;
35128;SDS011;21301;43.626;10.580;2022-08-19T04:03:39;10.48;;;4.60;;
35128;SDS011;21301;43.626;10.580;2022-08-19T04:06:16;10.38;;;4.72;;
35128;SDS011;21301;43.626;10.580;2022-08-19T04:08:43;18.17;;;5.13;;
35128;SDS011;21301;43.626;10.580;2022-08-19T04:11:12;17.55;;;5.50;;
35128;SDS011;21301;43.626;10.580;2022-08-19T04:13:43;10.35;;;4.55;;
35128;SDS011;21301;43.626;10.580;2022-08-19T04:16:10;17.58;;;6.50;;
35128;SDS011;21301;43.626;10.580;2022-08-19T04:18:36;12.45;;;5.35;;
35128;SDS011;21301;43.626;10.580;2022-08-19T04:21:04;10.27;;;5.53;;
35128;SDS011;21301;43.626;10.580;2022-08-19T04:23:31;11.25;;;5.65;;
35128;SDS011;21301;43.626;10.580;2022-08-19T04:25:58;14.65;;;5.53;;
35128;SDS011;21301;43.626;10.580;2022-08-19T04:28:24;10.10;;;5.13;;
35128;SDS011;21301;43.626;10.580;2022-08-19T04:30:52;11.68;;;5.28;;
35128;SDS011;21301;43.626;10.580;2022-08-19T04:33:20;12.02;;;6.20;;
35128;SDS011;21301;43.626;10.580;2022-08-19T04:35:48;12.80;;;5.28;;
35128;SDS011;21301;43.626;10.580;2022-08-19T04:38:17;12.70;;;6.05;;
35128;SDS011;21301;43.626;10.580;2022-08-19T04:40:46;16.63;;;4.95;;
35128;SDS011;21301;43.626;10.580;2022-08-19T04:43:32;17.65;;;6.00;;
35128;SDS011;21301;43.626;10.580;2022-08-19T04:46:03;14.93;;;5.50;;
35128;SDS011;21301;43.626;10.580;2022-08-19T04:48:31;7.95;;;4.55;;
35128;SDS011;21301;43.626;10.580;2022-08-19T04:50:57;9.77;;;5.13;;
35128;SDS011;21301;43.626;10.580;2022-08-19T04:53:27;10.32;;;4.40;;
35128;SDS011;21301;43.626;10.580;2022-08-19T04:55:57;10.73;;;5.15;;
35128;SDS011;21301;43.626;10.580;2022-08-19T04:58:25;14.13;;;5.72;;
35128;SDS011;21301;43.626;10.580;2022-08-19T05:00:52;14.50;;;5.05;;
35128;SDS011;21301;43.626;10.580;2022-08-19T05:03:19;11.95;;;5.35;;
35128;SDS011;21301;43.626;10.580;2022-08-19T05:05:46;13.70;;;5.25;;
35128;SDS011;21301;43.626;10.580;2022-08-19T05:08:17;14.48;;;5.20;;
35128;SDS011;21301;43.626;10.580;2022-08-19T05:10:45;11.27;;;5.32;;
35128;SDS011;21301;43.626;10.580;2022-08-19T05:13:13;11.60;;;4.20;;
35128;SDS011;21301;43.626;10.580;2022-08-19T05:15:40;15.23;;;4.28;;
35128;SDS011;21301;43.626;10.580;2022-08-19T05:18:06;9.70;;;4.22;;
35128;SDS011;21301;43.626;10.580;2022-08-19T05:20:50;8.38;;;3.63;;
35128;SDS011;21301;43.626;10.580;2022-08-19T05:23:34;11.13;;;3.97;;
35128;SDS011;21301;43.626;10.580;2022-08-19T05:26:00;8.93;;;4.47;;
35128;SDS011;21301;43.626;10.580;2022-08-19T05:28:26;7.90;;;3.60;;
35128;SDS011;21301;43.626;10.580;2022-08-19T05:30:52;8.63;;;4.22;;
35128;SDS011;21301;43.626;10.580;2022-08-19T05:33:21;10.65;;;4.38;;
35128;SDS011;21301;43.626;10.580;2022-08-19T05:35:47;9.20;;;3.97;;
35128;SDS011;21301;43.626;10.580;2022-08-19T05:38:15;10.43;;;4.78;;
35128;SDS011;21301;43.626;10.580;2022-08-19T05:40:42;10.45;;;3.50;;
35128;SDS011;21301;43.626;10.580;2022-08-19T05:43:12;8.80;;;4.50;;
35128;SDS011;21301;43.626;10.580;2022-08-19T05:45:41;14.15;;;4.55;;
35128;SDS011;21301;43.626;10.580;2022-08-19T05:48:08;16.02;;;5.82;;
35128;SDS011;21301;43.626;10.580;2022-08-19T05:50:37;10.98;;;6.15;;
35128;SDS011;21301;43.626;10.580;2022-08-19T05:53:04;14.95;;;6.43;;
35128;SDS011;21301;43.626;10.580;2022-08-19T05:55:30;9.75;;;6.53;;
35128;SDS011;21301;43.626;10.580;2022-08-19T05:57:56;10.30;;;5.00;;
35128;SDS011;21301;43.626;10.580;2022-08-19T06:00:22;12.18;;;6.53;;
35128;SDS011;21301;43.626;10.580;2022-08-19T06:02:48;15.73;;;5.90;;
35128;SDS011;21301;43.626;10.580;2022-08-19T06:05:16;13.90;;;6.32;;
35128;SDS011;21301;43.626;10.580;2022-08-19T06:07:42;12.90;;;6.00;;
35128;SDS011;21301;43.626;10.580;2022-08-19T06:10:09;10.50;;;5.97;;
35128;SDS011;21301;43.626;10.580;2022-08-19T06:12:36;11.20;;;5.07;;
35128;SDS011;21301;43.626;10.580;2022-08-19T06:15:07;12.65;;;6.25;;
35128;SDS011;21301;43.626;10.580;2022-08-19T06:17:35;13.67;;;5.73;;
35128;SDS011;21301;43.626;10.580;2022-08-19T06:20:03;16.48;;;5.57;;
35128;SDS011;21301;43.626;10.580;2022-08-19T06:22:38;14.93;;;5.97;;
35128;SDS011;21301;43.626;10.580;2022-08-19T06:25:09;14.82;;;6.10;;
35128;SDS011;21301;43.626;10.580;2022-08-19T06:27:36;12.25;;;5.72;;
35128;SDS011;21301;43.626;10.580;2022-08-19T06:30:03;12.82;;;6.25;;
35128;SDS011;21301;43.626;10.580;2022-08-19T06:32:29;14.27;;;6.47;;
35128;SDS011;21301;43.626;10.580;2022-08-19T06:34:56;13.50;;;6.20;;
35128;SDS011;21301;43.626;10.580;2022-08-19T06:37:22;17.05;;;6.63;;
35128;SDS011;21301;43.626;10.580;2022-08-19T06:39:49;15.18;;;6.28;;
35128;SDS011;21301;43.626;10.580;2022-08-19T06:42:15;11.48;;;5.35;;
35128;SDS011;21301;43.626;10.580;2022-08-19T06:44:44;14.98;;;6.13;;
35128;SDS011;21301;43.626;10.580;2022-08-19T06:47:14;21.08;;;7.63;;
35128;SDS011;21301;43.626;10.580;2022-08-19T06:49:43;11.23;;;7.32;;
35128;SDS011;21301;43.626;10.580;2022-08-19T06:52:09;18.23;;;8.52;;
35128;SDS011;21301;43.626;10.580;2022-08-19T06:54:38;13.75;;;8.68;;
35128;SDS011;21301;43.626;10.580;2022-08-19T06:57:05;14.15;;;7.82;;
35128;SDS011;21301;43.626;10.580;2022-08-19T06:59:32;16.33;;;8.63;;
35128;SDS011;21301;43.626;10.580;2022-08-19T07:01:58;16.38;;;9.10;;
35128;SDS011;21301;43.626;10.580;2022-08-19T07:04:28;17.02;;;8.95;;
35128;SDS011;21301;43.626;10.580;2022-08-19T07:06:58;16.05;;;9.20;;
35128;SDS011;21301;43.626;10.580;2022-08-19T07:09:26;17.70;;;9.43;;
35128;SDS011;21301;43.626;10.580;2022-08-19T07:11:53;14.80;;;8.90;;
35128;SDS011;21301;43.626;10.580;2022-08-19T07:14:21;20.30;;;9.90;;
35128;SDS011;21301;43.626;10.580;2022-08-19T07:16:51;21.95;;;9.48;;
35128;SDS011;21301;43.626;10.580;2022-08-19T07:19:20;16.85;;;10.02;;
35128;SDS011;21301;43.626;10.580;2022-08-19T07:21:48;14.82;;;8.43;;
35128;SDS011;21301;43.626;10.580;2022-08-19T07:24:16;31.83;;;10.85;;
35128;SDS011;21301;43.626;10.580;2022-08-19T07:26:42;16.98;;;8.95;;
35128;SDS011;21301;43.626;10.580;2022-08-19T07:29:09;16.10;;;9.43;;
35128;SDS011;21301;43.626;10.580;2022-08-19T07:31:36;31.50;;;10.50;;
35128;SDS011;21301;43.626;10.580;2022-08-19T07:34:03;23.02;;;9.85;;
35128;SDS011;21301;43.626;10.580;2022-08-19T07:36:35;15.90;;;9.93;;
35128;SDS011;21301;43.626;10.580;2022-08-19T07:39:07;18.55;;;10.57;;
35128;SDS011;21301;43.626;10.580;2022-08-19T07:41:36;15.52;;;8.85;;
35128;SDS011;21301;43.626;10.580;2022-08-19T07:44:02;17.75;;;10.88;;
35128;SDS011;21301;43.626;10.580;2022-08-19T07:46:32;17.92;;;9.43;;
35128;SDS011;21301;43.626;10.580;2022-08-19T07:49:00;14.00;;;9.40;;
35128;SDS011;21301;43.626;10.580;2022-08-19T07:51:27;13.43;;;8.80;;
35128;SDS011;21301;43.626;10.580;2022-08-19T07:53:53;18.60;;;9.63;;
35128;SDS011;21301;43.626;10.580;2022-08-19T07:56:20;30.90;;;11.30;;
35128;SDS011;21301;43.626;10.580;2022-08-19T07:58:47;17.70;;;9.20;;
35128;SDS011;21301;43.626;10.580;2022-08-19T08:01:24;16.30;;;9.32;;
35128;SDS011;21301;43.626;10.580;2022-08-19T08:03:53;17.27;;;8.68;;
35128;SDS011;21301;43.626;10.580;2022-08-19T08:06:38;13.20;;;8.82;;
35128;SDS011;21301;43.626;10.580;2022-08-19T08:09:24;19.27;;;8.63;;
35128;SDS011;21301;43.626;10.580;2022-08-19T08:11:59;14.57;;;7.60;;
35128;SDS011;21301;43.626;10.580;2022-08-19T08:14:33;16.20;;;9.48;;
35128;SDS011;21301;43.626;10.580;2022-08-19T08:17:04;20.85;;;9.23;;
35128;SDS011;21301;43.626;10.580;2022-08-19T08:19:31;15.23;;;7.72;;
35128;SDS011;21301;43.626;10.580;2022-08-19T08:21:58;11.73;;;7.32;;
35128;SDS011;21301;43.626;10.580;2022-08-19T08:24:26;18.88;;;5.93;;
35128;SDS011;21301;43.626;10.580;2022-08-19T08:26:53;11.57;;;4.90;;
35128;SDS011;21301;43.626;10.580;2022-08-19T08:29:18;11.02;;;4.93;;
35128;SDS011;21301;43.626;10.580;2022-08-19T08:31:45;11.85;;;4.68;;
35128;SDS011;21301;43.626;10.580;2022-08-19T08:34:12;11.23;;;3.65;;
35128;SDS011;21301;43.626;10.580;2022-08-19T08:36:40;9.38;;;4.03;;
35128;SDS011;21301;43.626;10.580;2022-08-19T08:39:10;9.95;;;2.65;;
35128;SDS011;21301;43.626;10.580;2022-08-19T08:44:21;10.98;;;3.38;;
35128;SDS011;21301;43.626;10.580;2022-08-19T08:47:04;8.63;;;3.55;;
35128;SDS011;21301;43.626;10.580;2022-08-19T08:52:20;8.07;;;2.88;;
35128;SDS011;21301;43.626;10.580;2022-08-19T08:54:49;9.57;;;3.00;;
35128;SDS011;21301;43.626;10.580;2022-08-19T08:59:57;7.03;;;2.22;;
35128;SDS011;21301;43.626;10.580;2022-08-19T09:02:30;21.17;;;3.88;;
35128;SDS011;21301;43.626;10.580;2022-08-19T09:04:56;18.88;;;2.75;;
35128;SDS011;21301;43.626;10.580;2022-08-19T09:13:05;7.20;;;1.88;;
35128;SDS011;21301;43.626;10.580;2022-08-19T09:15:47;5.07;;;1.98;;
35128;SDS011;21301;43.626;10.580;2022-08-19T09:18:20;4.20;;;1.50;;
35128;SDS011;21301;43.626;10.580;2022-08-19T09:20:45;3.72;;;1.38;;
35128;SDS011;21301;43.626;10.580;2022-08-19T09:23:14;7.78;;;1.75;;
35128;SDS011;21301;43.626;10.580;2022-08-19T09:25:40;4.13;;;1.38;;
35128;SDS011;21301;43.626;10.580;2022-08-19T09:28:06;3.85;;;1.33;;
35128;SDS011;21301;43.626;10.580;2022-08-19T09:30:34;3.58;;;1.15;;
35128;SDS011;21301;43.626;10.580;2022-08-19T09:33:04;4.30;;;1.23;;
35128;SDS011;21301;43.626;10.580;2022-08-19T09:35:31;6.10;;;1.58;;
35128;SDS011;21301;43.626;10.580;2022-08-19T09:37:59;5.15;;;1.45;;
35128;SDS011;21301;43.626;10.580;2022-08-19T09:40:26;4.38;;;1.77;;
35128;SDS011;21301;43.626;10.580;2022-08-19T09:42:53;4.47;;;1.23;;
35128;SDS011;21301;43.626;10.580;2022-08-19T09:45:20;5.22;;;1.73;;
35128;SDS011;21301;43.626;10.580;2022-08-19T09:47:47;13.05;;;1.92;;
35128;SDS011;21301;43.626;10.580;2022-08-19T09:50:17;14.75;;;2.20;;
35128;SDS011;21301;43.626;10.580;2022-08-19T09:52:44;7.53;;;2.60;;
35128;SDS011;21301;43.626;10.580;2022-08-19T09:55:11;5.93;;;2.08;;
35128;SDS011;21301;43.626;10.580;2022-08-19T09:57:37;4.95;;;2.15;;
35128;SDS011;21301;43.626;10.580;2022-08-19T10:00:04;5.10;;;1.90;;
35128;SDS011;21301;43.626;10.580;2022-08-19T10:02:32;7.38;;;2.42;;
35128;SDS011;21301;43.626;10.580;2022-08-19T10:04:58;5.78;;;2.17;;
35128;SDS011;21301;43.626;10.580;2022-08-19T10:07:43;7.32;;;2.15;;
35128;SDS011;21301;43.626;10.580;2022-08-19T10:10:09;5.65;;;2.05;;
35128;SDS011;21301;43.626;10.580;2022-08-19T10:12:35;6.63;;;2.45;;
35128;SDS011;21301;43.626;10.580;2022-08-19T10:15:02;6.05;;;2.40;;
35128;SDS011;21301;43.626;10.580;2022-08-19T10:17:29;7.50;;;2.10;;
35128;SDS011;21301;43.626;10.580;2022-08-19T10:19:55;7.40;;;2.22;;
35128;SDS011;21301;43.626;10.580;2022-08-19T10:22:21;7.53;;;1.95;;
35128;SDS011;21301;43.626;10.580;2022-08-19T10:24:47;7.32;;;2.63;;
35128;SDS011;21301;43.626;10.580;2022-08-19T10:27:14;11.32;;;3.05;;
35128;SDS011;21301;43.626;10.580;2022-08-19T10:29:40;6.22;;;2.63;;
35128;SDS011;21301;43.626;10.580;2022-08-19T10:32:07;6.53;;;2.40;;
35128;SDS011;21301;43.626;10.580;2022-08-19T10:34:34;6.00;;;2.78;;
35128;SDS011;21301;43.626;10.580;2022-08-19T10:37:04;5.85;;;2.60;;
35128;SDS011;21301;43.626;10.580;2022-08-19T10:39:31;7.70;;;2.33;;
35128;SDS011;21301;43.626;10.580;2022-08-19T10:41:59;4.40;;;1.95;;
35128;SDS011;21301;43.626;10.580;2022-08-19T10:44:33;6.43;;;2.22;;
35128;SDS011;21301;43.626;10.580;2022-08-19T10:47:00;5.38;;;1.98;;
35128;SDS011;21301;43.626;10.580;2022-08-19T10:49:27;7.78;;;2.08;;
35128;SDS011;21301;43.626;10.580;2022-08-19T10:51:54;6.70;;;2.00;;
35128;SDS011;21301;43.626;10.580;2022-08-19T10:54:39;5.32;;;2.30;;
35128;SDS011;21301;43.626;10.580;2022-08-19T10:57:24;6.43;;;2.38;;
35128;SDS011;21301;43.626;10.580;2022-08-19T10:59:55;7.90;;;2.70;;
35128;SDS011;21301;43.626;10.580;2022-08-19T11:02:22;19.10;;;2.97;;
35128;SDS011;21301;43.626;10.580;2022-08-19T11:04:48;7.50;;;2.40;;
35128;SDS011;21301;43.626;10.580;2022-08-19T11:07:16;5.75;;;2.40;;
35128;SDS011;21301;43.626;10.580;2022-08-19T11:09:42;7.70;;;1.90;;
35128;SDS011;21301;43.626;10.580;2022-08-19T11:12:09;9.68;;;2.33;;
35128;SDS011;21301;43.626;10.580;2022-08-19T11:14:35;7.35;;;2.28;;
35128;SDS011;21301;43.626;10.580;2022-08-19T11:17:02;4.95;;;1.98;;
35128;SDS011;21301;43.626;10.580;2022-08-19T11:19:29;5.82;;;1.85;;
35128;SDS011;21301;43.626;10.580;2022-08-19T11:21:56;6.20;;;1.90;;
35128;SDS011;21301;43.626;10.580;2022-08-19T11:24:23;5.72;;;1.77;;
35128;SDS011;21301;43.626;10.580;2022-08-19T11:26:51;4.88;;;2.17;;
35128;SDS011;21301;43.626;10.580;2022-08-19T11:29:21;6.57;;;1.83;;
35128;SDS011;21301;43.626;10.580;2022-08-19T11:31:51;5.72;;;1.85;;
35128;SDS011;21301;43.626;10.580;2022-08-19T11:34:21;4.28;;;2.15;;
35128;SDS011;21301;43.626;10.580;2022-08-19T11:36:48;6.43;;;2.03;;
35128;SDS011;21301;43.626;10.580;2022-08-19T11:39:17;5.93;;;2.20;;
35128;SDS011;21301;43.626;10.580;2022-08-19T11:41:44;5.10;;;2.40;;
35128;SDS011;21301;43.626;10.580;2022-08-19T11:44:10;5.40;;;2.15;;
35128;SDS011;21301;43.626;10.580;2022-08-19T11:46:36;9.05;;;2.63;;
35128;SDS011;21301;43.626;10.580;2022-08-19T11:49:03;4.25;;;1.75;;
35128;SDS011;21301;43.626;10.580;2022-08-19T11:51:31;4.22;;;1.58;;
35128;SDS011;21301;43.626;10.580;2022-08-19T11:53:59;3.30;;;1.30;;
35128;SDS011;21301;43.626;10.580;2022-08-19T11:56:26;4.55;;;1.38;;
35128;SDS011;21301;43.626;10.580;2022-08-19T11:58:52;4.63;;;1.67;;
35128;SDS011;21301;43.626;10.580;2022-08-19T12:01:20;5.03;;;1.25;;
35128;SDS011;21301;43.626;10.580;2022-08-19T12:03:48;7.43;;;1.60;;
35128;SDS011;21301;43.626;10.580;2022-08-19T12:06:16;7.47;;;1.77;;
35128;SDS011;21301;43.626;10.580;2022-08-19T12:08:49;6.35;;;1.45;;
35128;SDS011;21301;43.626;10.580;2022-08-19T12:11:15;7.63;;;1.85;;
35128;SDS011;21301;43.626;10.580;2022-08-19T12:13:41;4.57;;;1.75;;
35128;SDS011;21301;43.626;10.580;2022-08-19T12:16:11;4.47;;;1.45;;
35128;SDS011;21301;43.626;10.580;2022-08-19T12:18:40;4.68;;;1.52;;
35128;SDS011;21301;43.626;10.580;2022-08-19T12:21:14;4.05;;;1.90;;
35128;SDS011;21301;43.626;10.580;2022-08-19T12:23:42;4.70;;;1.80;;
35128;SDS011;21301;43.626;10.580;2022-08-19T12:26:10;9.20;;;2.05;;
35128;SDS011;21301;43.626;10.580;2022-08-19T12:28:37;7.63;;;1.88;;
35128;SDS011;21301;43.626;10.580;2022-08-19T12:31:03;4.90;;;1.90;;
35128;SDS011;21301;43.626;10.580;2022-08-19T12:33:31;4.32;;;1.80;;
35128;SDS011;21301;43.626;10.580;2022-08-19T12:36:02;4.70;;;1.58;;
35128;SDS011;21301;43.626;10.580;2022-08-19T12:38:30;5.15;;;1.65;;
35128;SDS011;21301;43.626;10.580;2022-08-19T12:40:57;6.93;;;2.25;;
35128;SDS011;21301;43.626;10.580;2022-08-19T12:43:23;5.15;;;2.35;;
35128;SDS011;21301;43.626;10.580;2022-08-19T12:45:50;3.88;;;1.63;;
35128;SDS011;21301;43.626;10.580;2022-08-19T12:48:16;4.80;;;1.65;;
35128;SDS011;21301;43.626;10.580;2022-08-19T12:50:42;6.65;;;1.60;;
35128;SDS011;21301;43.626;10.580;2022-08-19T12:53:10;5.47;;;1.58;;
35128;SDS011;21301;43.626;10.580;2022-08-19T12:55:36;4.30;;;1.50;;
35128;SDS011;21301;43.626;10.580;2022-08-19T12:58:02;4.88;;;1.95;;
35128;SDS011;21301;43.626;10.580;2022-08-19T13:00:28;4.40;;;1.73;;
35128;SDS011;21301;43.626;10.580;2022-08-19T13:02:55;5.72;;;1.67;;
35128;SDS011;21301;43.626;10.580;2022-08-19T13:05:26;6.63;;;1.73;;
35128;SDS011;21301;43.626;10.580;2022-08-19T13:07:54;5.30;;;2.05;;
35128;SDS011;21301;43.626;10.580;2022-08-19T13:10:21;4.57;;;1.90;;
35128;SDS011;21301;43.626;10.580;2022-08-19T13:12:50;4.30;;;1.45;;
35128;SDS011;21301;43.626;10.580;2022-08-19T13:15:19;4.43;;;2.03;;
35128;SDS011;21301;43.626;10.580;2022-08-19T13:17:46;3.65;;;1.70;;
35128;SDS011;21301;43.626;10.580;2022-08-19T13:20:14;3.88;;;1.80;;
35128;SDS011;21301;43.626;10.580;2022-08-19T13:22:41;4.70;;;1.55;;
35128;SDS011;21301;43.626;10.580;2022-08-19T13:25:07;10.55;;;1.60;;
35128;SDS011;21301;43.626;10.580;2022-08-19T13:27:34;8.27;;;1.98;;
35128;SDS011;21301;43.626;10.580;2022-08-19T13:30:02;29.60;;;16.25;;
35128;SDS011;21301;43.626;10.580;2022-08-19T13:32:48;10.85;;;4.93;;
35128;SDS011;21301;43.626;10.580;2022-08-19T13:35:36;6.88;;;3.67;;
35128;SDS011;21301;43.626;10.580;2022-08-19T13:38:02;6.45;;;3.13;;
35128;SDS011;21301;43.626;10.580;2022-08-19T13:40:30;9.02;;;3.42;;
35128;SDS011;21301;43.626;10.580;2022-08-19T13:42:59;7.47;;;3.25;;
35128;SDS011;21301;43.626;10.580;2022-08-19T13:45:27;7.82;;;3.20;;
35128;SDS011;21301;43.626;10.580;2022-08-19T13:47:54;4.78;;;2.40;;
35128;SDS011;21301;43.626;10.580;2022-08-19T13:50:23;6.28;;;3.33;;
35128;SDS011;21301;43.626;10.580;2022-08-19T13:52:52;6.35;;;3.05;;
35128;SDS011;21301;43.626;10.580;2022-08-19T13:55:18;6.78;;;2.13;;
35128;SDS011;21301;43.626;10.580;2022-08-19T13:57:44;4.72;;;2.15;;
35128;SDS011;21301;43.626;10.580;2022-08-19T14:00:12;5.13;;;2.03;;
35128;SDS011;21301;43.626;10.580;2022-08-19T14:02:40;6.55;;;2.30;;
35128;SDS011;21301;43.626;10.580;2022-08-19T14:05:07;3.28;;;1.40;;
35128;SDS011;21301;43.626;10.580;2022-08-19T14:07:36;5.40;;;2.28;;
35128;SDS011;21301;43.626;10.580;2022-08-19T14:10:06;4.70;;;2.17;;
35128;SDS011;21301;43.626;10.580;2022-08-19T14:12:34;5.85;;;3.38;;
35128;SDS011;21301;43.626;10.580;2022-08-19T14:15:01;8.90;;;3.33;;
35128;SDS011;21301;43.626;10.580;2022-08-19T14:17:29;5.40;;;1.92;;
35128;SDS011;21301;43.626;10.580;2022-08-19T14:19:59;5.38;;;1.83;;
35128;SDS011;21301;43.626;10.580;2022-08-19T14:22:27;7.33;;;1.90;;
35128;SDS011;21301;43.626;10.580;2022-08-19T14:24:53;5.68;;;2.20;;
35128;SDS011;21301;43.626;10.580;2022-08-19T14:27:19;4.20;;;1.70;;
35128;SDS011;21301;43.626;10.580;2022-08-19T14:29:44;23.15;;;12.73;;
35128;SDS011;21301;43.626;10.580;2022-08-19T14:32:10;32.85;;;19.75;;
35128;SDS011;21301;43.626;10.580;2022-08-19T14:34:37;7.35;;;2.65;;
35128;SDS011;21301;43.626;10.580;2022-08-19T14:37:03;18.33;;;10.15;;
35128;SDS011;21301;43.626;10.580;2022-08-19T14:39:29;18.08;;;10.52;;
35128;SDS011;21301;43.626;10.580;2022-08-19T14:41:54;10.32;;;5.00;;
35128;SDS011;21301;43.626;10.580;2022-08-19T14:44:21;15.43;;;7.10;;
35128;SDS011;21301;43.626;10.580;2022-08-19T14:46:48;12.27;;;4.88;;
35128;SDS011;21301;43.626;10.580;2022-08-19T14:49:13;7.55;;;3.92;;